EDDH Airport Information

Runway Information
Runway 05 Length 10663 ft width 150 ft
Elevation 32 ft Threshold 978 ft Heading 50
Runway 23 Length 10663 ft Width 150 ft
Elevation 43 ft Threshold 512 ft Heading 230
Runway 15 Length 12028 ft width 150 ft
Elevation 53 ft Threshold 0 ft Heading 153
Runway 33 Length 12028 ft Width 150 ft
Elevation 35 ft Threshold 1464 ft Heading 333
Airport Frequencies
Type ATIS Name ATIS Frequency 123.125 MHZ
Type DIR Name DIRECTOR Frequency 118.2 MHZ
Type GND Name GND Frequency 121.8 MHZ
Type RDR Name BREMEN RAD Frequency 134.25 MHZ
Type RMP Name APRON Frequency 121.7 MHZ
Type TWR Name TWR Frequency 126.85 MHZ
Airport Navaids
Type DME Name Alster Frequency 115800 KHZ
Type NDB Name Hamburg West Frequency 351 KHZ
Type NDB Name Hamburg North Frequency 323 KHZ
Type VORTAC Name Hamburg Frequency 113100 KHZ
Type NDB Name Hamburg Frequency 339 KHZ
Airport Weather Information & NOTAM
ADDS - METARS form results

(0835 UTC 21 April 2019)
Data provider http://aviationweather.gov/metar/data/
 
METAR text: EDDH 210820Z 11003KT 040V160 CAVOK 15/01 Q1025 NOSIG
Conditions at: EDDH (HAMBURG/FUHLSBUT, DE) observed 0820 UTC 21 April 2019
Temperature: 15.0°C (59°F)
Dewpoint: 1.0°C (34°F) [RH = 39%]
Pressure (altimeter): 30.27 inches Hg (1025.0 mb)
Winds: from the ESE (110 degrees) at 3 MPH (3 knots; 1.5 m/s)
Visibility: 6 or more miles (10+ km)
Ceiling: ceiling and visibility are OK
Clouds: unknown
Weather: no significant weather observed at this time

METAR text: EDDH 210750Z 12005KT 090V160 CAVOK 13/00 Q1025 NOSIG
Conditions at: EDDH (HAMBURG/FUHLSBUT, DE) observed 0750 UTC 21 April 2019
Temperature: 13.0°C (55°F)
Dewpoint: 0.0°C (32°F) [RH = 41%]
Pressure (altimeter): 30.27 inches Hg (1025.0 mb)
Winds: from the ESE (120 degrees) at 6 MPH (5 knots; 2.6 m/s)
Visibility: 6 or more miles (10+ km)
Ceiling: ceiling and visibility are OK
Clouds: unknown
Weather: no significant weather observed at this time

Forecast for: EDDH (HAMBURG/FUHLSBUT, DE)
Text: TAF EDDH 210500Z 2106/2212 08006KT CAVOK
Forecast period: 0600 UTC 21 April 2019 to 0600 UTC 22 April 2019
Forecast type: FROM: standard forecast or significant change
Winds: from the E (80 degrees) at 7 MPH (6 knots; 3.1 m/s)
Visibility: 6 or more miles 10+ km)
Ceiling: unknown
Clouds: missing
Weather: NSW  (no significant weather)
Text: BECMG 2206/2208 11012KT
Forecast period: 0600 to 1200 UTC 22 April 2019
Forecast type: BECOMING: Conditions expected to become as follows by 0800 UTC 22 April 2019
Winds: from the ESE (110 degrees) at 14 MPH (12 knots; 6.2 m/s)
Visibility: 6 or more miles 10+ km)
Ceiling: unknown
Clouds: missing
Weather: NSW  (no significant weather)